createdAt,value
2022-08-17T00:03:39.105Z,9.60
2022-08-17T00:08:04.649Z,17.67
2022-08-17T00:12:42.721Z,13.50
2022-08-17T00:17:09.691Z,10.20
2022-08-17T00:22:14.723Z,9.63
2022-08-17T00:26:44.025Z,10.70
2022-08-17T00:31:11.529Z,11.40
2022-08-17T00:35:36.953Z,12.67
2022-08-17T00:40:02.623Z,12.80
2022-08-17T00:44:28.817Z,10.97
2022-08-17T00:48:57.867Z,12.07
2022-08-17T00:53:23.860Z,12.13
2022-08-17T00:57:55.545Z,15.67
2022-08-17T01:02:21.752Z,10.20
2022-08-17T01:06:49.434Z,10.60
2022-08-17T01:11:15.034Z,10.50
2022-08-17T01:15:54.074Z,10.70
2022-08-17T01:20:19.372Z,10.70
2022-08-17T01:24:50.284Z,11.90
2022-08-17T01:29:16.004Z,14.57
2022-08-17T01:33:41.236Z,10.93
2022-08-17T01:38:07.481Z,10.67
2022-08-17T01:43:00.744Z,10.30
2022-08-17T01:47:26.429Z,10.27
2022-08-17T01:51:54.155Z,10.77
2022-08-17T01:56:23.618Z,17.33
2022-08-17T02:01:00.557Z,10.40
2022-08-17T02:05:27.224Z,12.80
2022-08-17T02:09:52.808Z,10.63
2022-08-17T02:14:18.462Z,11.57
2022-08-17T02:18:43.974Z,9.20
2022-08-17T02:23:11.869Z,8.57
2022-08-17T02:27:38.733Z,9.23
2022-08-17T02:32:05.222Z,10.07
2022-08-17T02:36:30.467Z,10.87
2022-08-17T02:40:55.670Z,9.43
2022-08-17T02:45:24.304Z,11.33
2022-08-17T02:49:49.525Z,11.37
2022-08-17T02:54:40.290Z,16.13
2022-08-17T02:59:06.196Z,9.60
2022-08-17T03:03:31.402Z,10.17
2022-08-17T03:07:57.058Z,12.93
2022-08-17T03:12:22.386Z,9.60
2022-08-17T03:16:47.593Z,13.90
2022-08-17T03:21:12.875Z,10.90
2022-08-17T03:25:44.011Z,11.20
2022-08-17T03:30:10.948Z,11.00
2022-08-17T03:34:36.174Z,9.13
2022-08-17T03:39:01.395Z,9.77
2022-08-17T03:43:31.381Z,11.17
2022-08-17T03:48:14.936Z,12.60
2022-08-17T03:52:58.809Z,10.00
2022-08-17T03:57:25.848Z,14.77
2022-08-17T04:01:54.428Z,11.30
2022-08-17T04:06:20.764Z,17.93
2022-08-17T04:10:46.317Z,11.20
2022-08-17T04:15:12.964Z,16.23
2022-08-17T04:19:38.176Z,9.60
2022-08-17T04:24:04.154Z,13.00
2022-08-17T04:28:30.932Z,13.53
2022-08-17T04:33:09.670Z,10.60
2022-08-17T04:37:34.902Z,11.57
2022-08-17T04:42:17.007Z,10.07
2022-08-17T04:46:42.317Z,11.87
2022-08-17T04:51:23.353Z,10.03
2022-08-17T04:55:48.726Z,12.77
2022-08-17T05:00:14.443Z,12.50
2022-08-17T05:04:41.787Z,12.80
2022-08-17T05:09:07.062Z,14.93
2022-08-17T05:13:32.514Z,14.07
2022-08-17T05:17:58.293Z,13.50
2022-08-17T05:22:23.532Z,17.20
2022-08-17T05:26:48.870Z,12.13
2022-08-17T05:31:16.305Z,17.20
2022-08-17T05:35:46.903Z,26.33
2022-08-17T05:40:12.968Z,21.80
2022-08-17T05:44:38.188Z,16.93
2022-08-17T05:49:11.019Z,21.20
2022-08-17T05:54:07.444Z,25.47
2022-08-17T05:59:03.171Z,23.20
2022-08-17T06:04:01.186Z,25.93
2022-08-17T06:08:51.845Z,24.33
2022-08-17T06:13:35.877Z,25.60
2022-08-17T06:18:08.959Z,26.00
2022-08-17T06:22:42.618Z,25.00
2022-08-17T06:27:35.639Z,23.03
2022-08-17T06:32:02.730Z,27.07
2022-08-17T06:37:00.457Z,26.80
2022-08-17T06:41:54.813Z,21.83
2022-08-17T06:46:39.209Z,21.03
2022-08-17T06:51:25.944Z,22.37
2022-08-17T06:56:05.435Z,24.63
2022-08-17T07:00:41.772Z,25.97
2022-08-17T07:05:08.067Z,23.87
2022-08-17T07:09:38.304Z,21.10
2022-08-17T07:14:29.209Z,24.70
2022-08-17T07:18:57.439Z,19.47
2022-08-17T07:23:38.536Z,26.63
2022-08-17T07:28:07.814Z,26.60
2022-08-17T07:32:40.247Z,29.00
2022-08-17T07:37:05.801Z,25.33
2022-08-17T07:41:57.535Z,28.77
2022-08-17T07:46:51.674Z,31.40
2022-08-17T07:51:21.613Z,31.13
2022-08-17T07:55:47.091Z,23.10
2022-08-17T08:00:26.641Z,27.13
2022-08-17T08:05:48.691Z,27.17
2022-08-17T08:10:32.234Z,24.87
2022-08-17T08:15:10.135Z,24.70
2022-08-17T08:19:35.413Z,26.77
2022-08-17T08:24:31.182Z,35.93
2022-08-17T08:29:29.889Z,32.87
2022-08-17T08:34:58.787Z,29.30
2022-08-17T08:39:18.177Z,33.70
2022-08-17T08:44:09.073Z,20.23
2022-08-17T08:48:58.721Z,30.50
2022-08-17T08:53:49.932Z,27.03
2022-08-17T08:58:31.773Z,25.10
2022-08-17T09:03:52.834Z,26.73
2022-08-17T09:08:58.794Z,30.13
2022-08-17T09:13:42.277Z,23.00
2022-08-17T09:19:00.389Z,22.30
2022-08-17T09:23:37.902Z,26.93
2022-08-17T09:28:21.394Z,22.10
2022-08-17T09:33:00.086Z,24.80
2022-08-17T09:37:47.783Z,24.90
2022-08-17T09:42:33.255Z,22.27
2022-08-17T09:47:17.107Z,18.17
2022-08-17T09:51:49.288Z,23.60
2022-08-17T09:57:28.702Z,16.60
2022-08-17T10:02:26.568Z,21.47
2022-08-17T10:06:58.834Z,13.77
2022-08-17T10:11:55.726Z,19.03
2022-08-17T10:16:49.906Z,14.90
2022-08-17T10:21:36.089Z,15.23
2022-08-17T10:26:24.874Z,15.80
2022-08-17T10:31:16.686Z,13.83
2022-08-17T10:35:57.072Z,21.10
2022-08-17T10:40:32.418Z,14.80
2022-08-17T10:45:21.702Z,13.50
2022-08-17T10:49:53.670Z,14.93
2022-08-17T10:54:25.371Z,12.33
2022-08-17T10:58:55.265Z,18.77
2022-08-17T11:03:24.807Z,16.40
2022-08-17T11:08:22.228Z,13.50
2022-08-17T11:13:28.050Z,12.50
2022-08-17T11:18:33.042Z,15.37
2022-08-17T11:23:32.597Z,15.53
2022-08-17T11:28:19.274Z,12.30
2022-08-17T11:32:54.773Z,10.40
2022-08-17T11:37:47.502Z,12.80
2022-08-17T11:42:37.479Z,10.43
2022-08-17T11:47:36.500Z,9.90
2022-08-17T11:52:01.725Z,14.73
2022-08-17T11:56:48.926Z,11.27
2022-08-17T12:01:55.713Z,15.53
2022-08-17T12:06:30.472Z,11.53
2022-08-17T12:11:04.722Z,10.83
2022-08-17T12:15:36.213Z,12.50
2022-08-17T12:20:56.665Z,8.30
2022-08-17T12:25:37.549Z,11.50
2022-08-17T12:30:11.089Z,12.43
2022-08-17T12:34:42.322Z,7.50
2022-08-17T12:39:13.819Z,12.13
2022-08-17T12:43:40.204Z,6.30
2022-08-17T12:48:12.299Z,11.53
2022-08-17T12:52:41.208Z,11.70
2022-08-17T12:57:20.388Z,7.33
2022-08-17T13:01:46.872Z,6.67
2022-08-17T13:06:27.750Z,7.17
2022-08-17T13:11:05.808Z,7.80
2022-08-17T13:15:50.960Z,7.57
2022-08-17T13:20:16.272Z,9.17
2022-08-17T13:24:54.159Z,6.23
2022-08-17T13:29:31.379Z,7.70
2022-08-17T13:34:20.349Z,6.70
2022-08-17T13:38:49.522Z,8.83
2022-08-17T13:43:50.591Z,8.30
2022-08-17T13:48:15.833Z,5.40
2022-08-17T13:52:43.481Z,5.10
2022-08-17T13:57:12.428Z,9.60
2022-08-17T14:01:53.574Z,10.23
2022-08-17T14:06:49.798Z,5.43
2022-08-17T14:11:04.865Z,6.83
2022-08-17T14:15:54.853Z,8.13
2022-08-17T14:20:19.956Z,5.10
2022-08-17T14:24:45.947Z,7.90
2022-08-17T14:29:15.095Z,6.83
2022-08-17T14:33:40.914Z,8.50
2022-08-17T14:38:06.204Z,7.30
2022-08-17T14:42:34.068Z,6.13
2022-08-17T14:46:59.286Z,7.00
2022-08-17T14:51:24.545Z,6.70
2022-08-17T14:55:51.796Z,11.10
2022-08-17T15:00:17.461Z,7.27
2022-08-17T15:04:45.639Z,5.97
2022-08-17T15:09:11.167Z,7.83
2022-08-17T15:13:37.348Z,7.47
2022-08-17T15:18:18.582Z,7.00
2022-08-17T15:22:45.496Z,8.80
2022-08-17T15:27:11.436Z,9.17
2022-08-17T15:31:37.298Z,7.23
2022-08-17T15:36:06.516Z,5.70
2022-08-17T15:40:31.733Z,11.77
2022-08-17T15:45:11.359Z,6.17
2022-08-17T15:49:41.220Z,8.60
2022-08-17T15:54:22.291Z,12.10
2022-08-17T15:58:49.054Z,6.80
2022-08-17T16:03:58.269Z,6.37
2022-08-17T16:08:00.027Z,9.30
2022-08-17T16:12:25.805Z,6.80
2022-08-17T16:16:51.187Z,6.30
2022-08-17T16:21:25.919Z,11.27
2022-08-17T16:25:54.125Z,7.57
2022-08-17T16:30:24.501Z,11.17
2022-08-17T16:34:49.825Z,8.53
2022-08-17T16:39:15.400Z,7.40
2022-08-17T16:43:40.671Z,9.57
2022-08-17T16:48:07.861Z,8.40
2022-08-17T16:52:34.154Z,12.20
2022-08-17T16:56:59.398Z,15.07
2022-08-17T17:01:24.849Z,8.47
2022-08-17T17:06:33.505Z,14.00
2022-08-17T17:11:23.388Z,12.70
2022-08-17T17:16:41.110Z,13.27
2022-08-17T17:21:25.600Z,20.10
2022-08-17T17:26:12.840Z,10.50
2022-08-17T17:30:58.586Z,12.17
2022-08-17T17:35:34.777Z,10.77
2022-08-17T17:40:40.860Z,10.40
2022-08-17T17:45:18.687Z,10.37
2022-08-17T17:49:48.702Z,10.57
2022-08-17T17:54:43.884Z,9.53
2022-08-17T17:59:44.052Z,9.30
2022-08-17T18:04:41.310Z,8.77
2022-08-17T18:09:39.229Z,10.20
2022-08-17T18:14:40.395Z,9.40
2022-08-17T18:19:06.791Z,10.20
2022-08-17T18:23:33.336Z,11.30
2022-08-17T18:27:58.642Z,14.50
2022-08-17T18:32:34.227Z,8.37
2022-08-17T18:36:59.456Z,10.70
2022-08-17T18:41:30.453Z,9.80
2022-08-17T18:45:58.034Z,9.80
2022-08-17T18:50:39.616Z,8.70
2022-08-17T18:55:31.241Z,11.20
2022-08-17T18:59:56.568Z,11.80
2022-08-17T19:04:38.314Z,16.93
2022-08-17T19:09:03.672Z,11.30
2022-08-17T19:13:43.804Z,8.30
2022-08-17T19:18:19.223Z,6.90
2022-08-17T19:23:53.284Z,8.87
2022-08-17T19:28:29.959Z,9.17
2022-08-17T19:32:58.339Z,9.30
2022-08-17T19:37:44.298Z,8.57
2022-08-17T19:42:34.251Z,9.57
2022-08-17T19:48:04.987Z,9.57
2022-08-17T19:53:09.503Z,13.77
2022-08-17T19:57:39.351Z,16.03
2022-08-17T20:02:15.710Z,13.60
2022-08-17T20:06:46.682Z,13.67
2022-08-17T20:11:21.268Z,13.10
2022-08-17T20:15:47.210Z,15.13
2022-08-17T20:20:34.602Z,11.30
2022-08-17T20:25:29.923Z,13.23
2022-08-17T20:30:14.304Z,11.93
2022-08-17T20:34:39.800Z,10.77
2022-08-17T20:39:05.101Z,10.03
2022-08-17T20:43:33.026Z,11.40
2022-08-17T20:48:30.858Z,11.20
2022-08-17T20:52:56.266Z,12.20
2022-08-17T20:57:36.623Z,11.40
2022-08-17T21:02:17.679Z,11.30
2022-08-17T21:07:34.478Z,12.43
2022-08-17T21:12:09.403Z,11.77
2022-08-17T21:16:59.891Z,8.80
2022-08-17T21:22:01.139Z,9.37
2022-08-17T21:26:53.958Z,6.50
2022-08-17T21:32:03.584Z,8.07
2022-08-17T21:36:31.281Z,5.57
2022-08-17T21:40:56.640Z,4.53
2022-08-17T21:45:35.528Z,4.43
2022-08-17T21:50:23.880Z,5.70
2022-08-17T21:54:56.408Z,4.33
2022-08-17T21:59:36.926Z,4.97
2022-08-17T22:04:04.101Z,11.23
2022-08-17T22:08:29.353Z,5.50
2022-08-17T22:13:17.283Z,5.13
2022-08-17T22:17:46.602Z,10.80
2022-08-17T22:22:26.358Z,8.10
2022-08-17T22:27:20.202Z,6.93
2022-08-17T22:31:57.036Z,12.60
2022-08-17T22:36:33.029Z,6.93
2022-08-17T22:41:34.432Z,12.23
2022-08-17T22:46:00.328Z,10.67
2022-08-17T22:50:30.285Z,13.97
2022-08-17T22:55:41.049Z,14.13
2022-08-17T23:00:35.125Z,14.33
2022-08-17T23:05:16.711Z,5.13
2022-08-17T23:09:42.112Z,13.67
2022-08-17T23:14:08.431Z,8.00
2022-08-17T23:18:33.664Z,12.70
2022-08-17T23:22:59.985Z,9.20
2022-08-17T23:27:28.572Z,6.63
2022-08-17T23:31:54.652Z,5.10
2022-08-17T23:36:19.903Z,7.10
2022-08-17T23:40:45.329Z,4.97
2022-08-17T23:45:10.615Z,4.40
2022-08-17T23:49:36.350Z,6.80
2022-08-17T23:54:13.446Z,6.33
2022-08-17T23:58:44.722Z,3.37
